sensor_id;sensor_type;location;lat;lon;timestamp;temperature;humidity
74484;SHT31;62942;52.462;10.846;2023-06-14T00:00:50;13.7;68
74484;SHT31;62942;52.462;10.846;2023-06-14T00:02:00;13.7;68
74484;SHT31;62942;52.462;10.846;2023-06-14T00:03:00;13.7;68.1
74484;SHT31;62942;52.462;10.846;2023-06-14T00:04:10;13.7;68.1
74484;SHT31;62942;52.462;10.846;2023-06-14T00:05:10;13.7;68.1
74484;SHT31;62942;52.462;10.846;2023-06-14T00:06:20;13.7;68.2
74484;SHT31;62942;52.462;10.846;2023-06-14T00:07:22;13.7;68.2
74484;SHT31;62942;52.462;10.846;2023-06-14T00:08:20;13.6;68.3
74484;SHT31;62942;52.462;10.846;2023-06-14T00:09:30;13.6;68.3
74484;SHT31;62942;52.462;10.846;2023-06-14T00:10:40;13.6;68.4
74484;SHT31;62942;52.462;10.846;2023-06-14T00:11:40;13.6;68.4
74484;SHT31;62942;52.462;10.846;2023-06-14T00:12:50;13.6;68.6
74484;SHT31;62942;52.462;10.846;2023-06-14T00:13:50;13.5;68.6
74484;SHT31;62942;52.462;10.846;2023-06-14T00:15:00;13.5;68.8
74484;SHT31;62942;52.462;10.846;2023-06-14T00:16:10;13.4;68.9
74484;SHT31;62942;52.462;10.846;2023-06-14T00:17:10;13.4;68.9
74484;SHT31;62942;52.462;10.846;2023-06-14T00:18:20;13.4;69
74484;SHT31;62942;52.462;10.846;2023-06-14T00:19:20;13.4;69.1
74484;SHT31;62942;52.462;10.846;2023-06-14T00:20:30;13.3;69.2
74484;SHT31;62942;52.462;10.846;2023-06-14T00:21:30;13.3;69.3
74484;SHT31;62942;52.462;10.846;2023-06-14T00:22:40;13.3;69.6
74484;SHT31;62942;52.462;10.846;2023-06-14T00:23:50;13.2;69.8
74484;SHT31;62942;52.462;10.846;2023-06-14T00:25:00;13.2;70
74484;SHT31;62942;52.462;10.846;2023-06-14T00:26:10;13.2;70.1
74484;SHT31;62942;52.462;10.846;2023-06-14T00:27:10;13.1;70.2
74484;SHT31;62942;52.462;10.846;2023-06-14T00:28:20;13.1;70.3
74484;SHT31;62942;52.462;10.846;2023-06-14T00:29:30;13.1;70.4
74484;SHT31;62942;52.462;10.846;2023-06-14T00:30:40;13.1;70.5
74484;SHT31;62942;52.462;10.846;2023-06-14T00:31:40;13;70.5
74484;SHT31;62942;52.462;10.846;2023-06-14T00:32:40;13;70.7
74484;SHT31;62942;52.462;10.846;2023-06-14T00:33:50;13;70.7
74484;SHT31;62942;52.462;10.846;2023-06-14T00:35:00;13;70.8
74484;SHT31;62942;52.462;10.846;2023-06-14T00:36:10;13;70.9
74484;SHT31;62942;52.462;10.846;2023-06-14T00:37:20;12.9;70.9
74484;SHT31;62942;52.462;10.846;2023-06-14T00:38:30;12.8;71.1
74484;SHT31;62942;52.462;10.846;2023-06-14T00:39:40;12.8;71.3
74484;SHT31;62942;52.462;10.846;2023-06-14T00:40:50;12.7;71.5
74484;SHT31;62942;52.462;10.846;2023-06-14T00:41:50;12.7;71.7
74484;SHT31;62942;52.462;10.846;2023-06-14T00:43:00;12.7;72
74484;SHT31;62942;52.462;10.846;2023-06-14T00:44:00;12.7;72.1
74484;SHT31;62942;52.462;10.846;2023-06-14T00:45:10;12.6;72.2
74484;SHT31;62942;52.462;10.846;2023-06-14T00:46:10;12.6;72.2
74484;SHT31;62942;52.462;10.846;2023-06-14T00:47:20;12.6;72.3
74484;SHT31;62942;52.462;10.846;2023-06-14T00:48:20;12.6;72.3
74484;SHT31;62942;52.462;10.846;2023-06-14T00:49:30;12.6;72.3
74484;SHT31;62942;52.462;10.846;2023-06-14T00:50:40;12.5;72.4
74484;SHT31;62942;52.462;10.846;2023-06-14T00:51:40;12.5;72.5
74484;SHT31;62942;52.462;10.846;2023-06-14T00:52:50;12.5;72.5
74484;SHT31;62942;52.462;10.846;2023-06-14T00:53:50;12.5;72.6
74484;SHT31;62942;52.462;10.846;2023-06-14T00:55:00;12.4;72.8
74484;SHT31;62942;52.462;10.846;2023-06-14T00:56:00;12.4;72.9
74484;SHT31;62942;52.462;10.846;2023-06-14T00:57:10;12.4;73
74484;SHT31;62942;52.462;10.846;2023-06-14T00:58:10;12.3;73.1
74484;SHT31;62942;52.462;10.846;2023-06-14T00:59:20;12.3;73.2
74484;SHT31;62942;52.462;10.846;2023-06-14T01:00:20;12.3;73.3
74484;SHT31;62942;52.462;10.846;2023-06-14T01:01:30;12.3;73.5
74484;SHT31;62942;52.462;10.846;2023-06-14T01:02:30;12.3;73.7
74484;SHT31;62942;52.462;10.846;2023-06-14T01:03:40;12.2;73.9
74484;SHT31;62942;52.462;10.846;2023-06-14T01:04:40;12.2;73.9
74484;SHT31;62942;52.462;10.846;2023-06-14T01:05:50;12.2;73.8
74484;SHT31;62942;52.462;10.846;2023-06-14T01:07:01;12.1;74.1
74484;SHT31;62942;52.462;10.846;2023-06-14T01:08:13;12.1;74.4
74484;SHT31;62942;52.462;10.846;2023-06-14T01:09:12;12.1;74.5
74484;SHT31;62942;52.462;10.846;2023-06-14T01:10:22;12.1;74.8
74484;SHT31;62942;52.462;10.846;2023-06-14T01:11:22;12.1;75
74484;SHT31;62942;52.462;10.846;2023-06-14T01:12:31;12.1;75.1
74484;SHT31;62942;52.462;10.846;2023-06-14T01:13:32;12;75.2
74484;SHT31;62942;52.462;10.846;2023-06-14T01:14:30;12;75.3
74484;SHT31;62942;52.462;10.846;2023-06-14T01:15:40;11.9;75.4
74484;SHT31;62942;52.462;10.846;2023-06-14T01:16:50;11.9;75.5
74484;SHT31;62942;52.462;10.846;2023-06-14T01:18:00;11.9;75.6
74484;SHT31;62942;52.462;10.846;2023-06-14T01:19:00;11.9;75.8
74484;SHT31;62942;52.462;10.846;2023-06-14T01:20:10;11.9;75.9
74484;SHT31;62942;52.462;10.846;2023-06-14T01:21:19;11.9;75.9
74484;SHT31;62942;52.462;10.846;2023-06-14T01:22:20;11.9;75.9
74484;SHT31;62942;52.462;10.846;2023-06-14T01:23:20;11.9;75.9
74484;SHT31;62942;52.462;10.846;2023-06-14T01:24:20;11.9;75.8
74484;SHT31;62942;52.462;10.846;2023-06-14T01:25:30;11.9;75.9
74484;SHT31;62942;52.462;10.846;2023-06-14T01:26:30;11.8;75.9
74484;SHT31;62942;52.462;10.846;2023-06-14T01:27:40;11.8;76.1
74484;SHT31;62942;52.462;10.846;2023-06-14T01:28:40;11.8;76.2
74484;SHT31;62942;52.462;10.846;2023-06-14T01:29:50;11.8;76.3
74484;SHT31;62942;52.462;10.846;2023-06-14T01:31:00;11.8;76.4
74484;SHT31;62942;52.462;10.846;2023-06-14T01:32:00;11.8;76.4
74484;SHT31;62942;52.462;10.846;2023-06-14T01:33:10;11.8;76.4
74484;SHT31;62942;52.462;10.846;2023-06-14T01:34:20;11.7;76.5
74484;SHT31;62942;52.462;10.846;2023-06-14T01:35:20;11.8;76.6
74484;SHT31;62942;52.462;10.846;2023-06-14T01:36:30;11.8;76.6
74484;SHT31;62942;52.462;10.846;2023-06-14T01:37:40;11.8;76.7
74484;SHT31;62942;52.462;10.846;2023-06-14T01:38:50;11.7;76.7
74484;SHT31;62942;52.462;10.846;2023-06-14T01:40:00;11.7;76.7
74484;SHT31;62942;52.462;10.846;2023-06-14T01:41:00;11.7;76.7
74484;SHT31;62942;52.462;10.846;2023-06-14T01:42:10;11.7;76.8
74484;SHT31;62942;52.462;10.846;2023-06-14T01:43:20;11.8;76.9
74484;SHT31;62942;52.462;10.846;2023-06-14T01:44:20;11.7;76.9
74484;SHT31;62942;52.462;10.846;2023-06-14T01:45:20;11.8;76.9
74484;SHT31;62942;52.462;10.846;2023-06-14T01:46:30;11.7;76.9
74484;SHT31;62942;52.462;10.846;2023-06-14T01:47:40;11.7;76.9
74484;SHT31;62942;52.462;10.846;2023-06-14T01:48:40;11.7;77
74484;SHT31;62942;52.462;10.846;2023-06-14T01:49:50;11.7;77.1
74484;SHT31;62942;52.462;10.846;2023-06-14T01:50:50;11.7;77.2
74484;SHT31;62942;52.462;10.846;2023-06-14T01:52:00;11.7;77.2
74484;SHT31;62942;52.462;10.846;2023-06-14T01:53:10;11.6;77.2
74484;SHT31;62942;52.462;10.846;2023-06-14T01:54:20;11.6;77.2
74484;SHT31;62942;52.462;10.846;2023-06-14T01:55:29;11.6;77.2
74484;SHT31;62942;52.462;10.846;2023-06-14T01:56:30;11.6;77.3
74484;SHT31;62942;52.462;10.846;2023-06-14T01:57:30;11.6;77.4
74484;SHT31;62942;52.462;10.846;2023-06-14T01:58:40;11.5;77.5
74484;SHT31;62942;52.462;10.846;2023-06-14T01:59:40;11.5;77.5
74484;SHT31;62942;52.462;10.846;2023-06-14T02:00:40;11.5;77.6
74484;SHT31;62942;52.462;10.846;2023-06-14T02:01:50;11.5;77.7
74484;SHT31;62942;52.462;10.846;2023-06-14T02:02:50;11.5;77.7
74484;SHT31;62942;52.462;10.846;2023-06-14T02:03:50;11.5;77.8
74484;SHT31;62942;52.462;10.846;2023-06-14T02:05:00;11.4;77.9
74484;SHT31;62942;52.462;10.846;2023-06-14T02:06:10;11.4;77.9
74484;SHT31;62942;52.462;10.846;2023-06-14T02:07:10;11.4;78
74484;SHT31;62942;52.462;10.846;2023-06-14T02:08:10;11.4;78
74484;SHT31;62942;52.462;10.846;2023-06-14T02:09:20;11.4;78
74484;SHT31;62942;52.462;10.846;2023-06-14T02:10:30;11.4;78.2
74484;SHT31;62942;52.462;10.846;2023-06-14T02:11:40;11.4;78.2
74484;SHT31;62942;52.462;10.846;2023-06-14T02:12:50;11.4;78.3
74484;SHT31;62942;52.462;10.846;2023-06-14T02:13:59;11.4;78.6
74484;SHT31;62942;52.462;10.846;2023-06-14T02:14:59;11.4;78.6
74484;SHT31;62942;52.462;10.846;2023-06-14T02:16:00;11.4;78.5
74484;SHT31;62942;52.462;10.846;2023-06-14T02:17:10;11.4;78.5
74484;SHT31;62942;52.462;10.846;2023-06-14T02:18:20;11.4;78.5
74484;SHT31;62942;52.462;10.846;2023-06-14T02:19:29;11.4;78.7
74484;SHT31;62942;52.462;10.846;2023-06-14T02:20:30;11.4;78.8
74484;SHT31;62942;52.462;10.846;2023-06-14T02:21:30;11.4;78.7
74484;SHT31;62942;52.462;10.846;2023-06-14T02:22:40;11.4;78.8
74484;SHT31;62942;52.462;10.846;2023-06-14T02:23:50;11.4;78.8
74484;SHT31;62942;52.462;10.846;2023-06-14T02:25:00;11.3;78.8
74484;SHT31;62942;52.462;10.846;2023-06-14T02:26:10;11.3;78.9
74484;SHT31;62942;52.462;10.846;2023-06-14T02:27:19;11.3;78.9
74484;SHT31;62942;52.462;10.846;2023-06-14T02:28:19;11.3;79
74484;SHT31;62942;52.462;10.846;2023-06-14T02:29:29;11.3;79.1
74484;SHT31;62942;52.462;10.846;2023-06-14T02:30:39;11.3;79.2
74484;SHT31;62942;52.462;10.846;2023-06-14T02:31:49;11.3;79.3
74484;SHT31;62942;52.462;10.846;2023-06-14T02:32:49;11.3;79.3
74484;SHT31;62942;52.462;10.846;2023-06-14T02:33:49;11.3;79.4
74484;SHT31;62942;52.462;10.846;2023-06-14T02:34:59;11.2;79.4
74484;SHT31;62942;52.462;10.846;2023-06-14T02:36:00;11.2;79.6
74484;SHT31;62942;52.462;10.846;2023-06-14T02:36:59;11.2;79.6
74484;SHT31;62942;52.462;10.846;2023-06-14T02:38:09;11.2;79.7
74484;SHT31;62942;52.462;10.846;2023-06-14T02:39:19;11.2;79.8
74484;SHT31;62942;52.462;10.846;2023-06-14T02:40:29;11.2;79.8
74484;SHT31;62942;52.462;10.846;2023-06-14T02:41:39;11.2;79.8
74484;SHT31;62942;52.462;10.846;2023-06-14T02:42:39;11.2;79.9
74484;SHT31;62942;52.462;10.846;2023-06-14T02:43:39;11.2;80
74484;SHT31;62942;52.462;10.846;2023-06-14T02:44:49;11.1;80
74484;SHT31;62942;52.462;10.846;2023-06-14T02:45:59;11.1;80
74484;SHT31;62942;52.462;10.846;2023-06-14T02:47:09;11.1;80.3
74484;SHT31;62942;52.462;10.846;2023-06-14T02:48:09;11.1;80.3
74484;SHT31;62942;52.462;10.846;2023-06-14T02:49:09;11.1;80.4
74484;SHT31;62942;52.462;10.846;2023-06-14T02:50:20;11.1;80.4
74484;SHT31;62942;52.462;10.846;2023-06-14T02:51:29;11.1;80.3
74484;SHT31;62942;52.462;10.846;2023-06-14T02:52:29;11.1;80.4
74484;SHT31;62942;52.462;10.846;2023-06-14T02:53:39;11;80.5
74484;SHT31;62942;52.462;10.846;2023-06-14T02:54:39;11;80.6
74484;SHT31;62942;52.462;10.846;2023-06-14T02:55:49;11;80.7
74484;SHT31;62942;52.462;10.846;2023-06-14T02:57:00;11;80.8
74484;SHT31;62942;52.462;10.846;2023-06-14T02:58:09;10.9;80.9
74484;SHT31;62942;52.462;10.846;2023-06-14T02:59:19;10.9;81
74484;SHT31;62942;52.462;10.846;2023-06-14T03:00:29;10.9;81.2
74484;SHT31;62942;52.462;10.846;2023-06-14T03:01:40;10.9;81.3
74484;SHT31;62942;52.462;10.846;2023-06-14T03:02:49;10.9;81.3
74484;SHT31;62942;52.462;10.846;2023-06-14T03:03:49;10.9;81.4
74484;SHT31;62942;52.462;10.846;2023-06-14T03:04:49;10.9;81.5
74484;SHT31;62942;52.462;10.846;2023-06-14T03:05:59;10.9;81.4
74484;SHT31;62942;52.462;10.846;2023-06-14T03:07:10;10.9;81.4
74484;SHT31;62942;52.462;10.846;2023-06-14T03:08:19;10.8;81.6
74484;SHT31;62942;52.462;10.846;2023-06-14T03:09:19;10.9;81.7
74484;SHT31;62942;52.462;10.846;2023-06-14T03:10:29;10.9;81.6
74484;SHT31;62942;52.462;10.846;2023-06-14T03:11:29;10.9;81.7
74484;SHT31;62942;52.462;10.846;2023-06-14T03:12:29;10.9;81.7
74484;SHT31;62942;52.462;10.846;2023-06-14T03:13:39;10.8;81.7
74484;SHT31;62942;52.462;10.846;2023-06-14T03:14:39;10.8;81.8
74484;SHT31;62942;52.462;10.846;2023-06-14T03:15:49;10.9;81.9
74484;SHT31;62942;52.462;10.846;2023-06-14T03:16:59;10.8;81.9
74484;SHT31;62942;52.462;10.846;2023-06-14T03:18:09;10.9;82
74484;SHT31;62942;52.462;10.846;2023-06-14T03:19:19;10.9;82
74484;SHT31;62942;52.462;10.846;2023-06-14T03:20:29;10.9;81.9
74484;SHT31;62942;52.462;10.846;2023-06-14T03:21:39;10.9;81.9
74484;SHT31;62942;52.462;10.846;2023-06-14T03:22:49;10.9;81.9
74484;SHT31;62942;52.462;10.846;2023-06-14T03:23:59;10.9;81.9
74484;SHT31;62942;52.462;10.846;2023-06-14T03:24:59;10.8;81.9
74484;SHT31;62942;52.462;10.846;2023-06-14T03:26:09;10.8;81.9
74484;SHT31;62942;52.462;10.846;2023-06-14T03:27:19;10.9;81.9
74484;SHT31;62942;52.462;10.846;2023-06-14T03:28:29;10.8;81.9
74484;SHT31;62942;52.462;10.846;2023-06-14T03:29:29;10.9;82
74484;SHT31;62942;52.462;10.846;2023-06-14T03:30:39;10.9;82.2
74484;SHT31;62942;52.462;10.846;2023-06-14T03:31:41;10.9;82.1
74484;SHT31;62942;52.462;10.846;2023-06-14T03:32:39;10.9;82.1
74484;SHT31;62942;52.462;10.846;2023-06-14T03:33:49;11;81.9
74484;SHT31;62942;52.462;10.846;2023-06-14T03:34:49;11;81.8
74484;SHT31;62942;52.462;10.846;2023-06-14T03:35:49;11;81.7
74484;SHT31;62942;52.462;10.846;2023-06-14T03:36:59;11.1;81.6
74484;SHT31;62942;52.462;10.846;2023-06-14T03:38:09;11.1;81.5
74484;SHT31;62942;52.462;10.846;2023-06-14T03:39:19;11.2;81.3
74484;SHT31;62942;52.462;10.846;2023-06-14T03:40:20;11.1;81.2
74484;SHT31;62942;52.462;10.846;2023-06-14T03:41:29;11.2;81.1
74484;SHT31;62942;52.462;10.846;2023-06-14T03:42:39;11.2;81.1
74484;SHT31;62942;52.462;10.846;2023-06-14T03:43:39;11.2;81
74484;SHT31;62942;52.462;10.846;2023-06-14T03:44:39;11.2;81
74484;SHT31;62942;52.462;10.846;2023-06-14T03:45:49;11.3;81
74484;SHT31;62942;52.462;10.846;2023-06-14T03:46:49;11.3;81
74484;SHT31;62942;52.462;10.846;2023-06-14T03:47:59;11.3;81
74484;SHT31;62942;52.462;10.846;2023-06-14T03:49:09;11.4;81
74484;SHT31;62942;52.462;10.846;2023-06-14T03:50:10;11.4;80.9
74484;SHT31;62942;52.462;10.846;2023-06-14T03:51:09;11.4;80.9
74484;SHT31;62942;52.462;10.846;2023-06-14T03:52:19;11.4;80.9
74484;SHT31;62942;52.462;10.846;2023-06-14T03:53:29;11.4;80.8
74484;SHT31;62942;52.462;10.846;2023-06-14T03:54:29;11.4;80.8
74484;SHT31;62942;52.462;10.846;2023-06-14T03:55:30;11.4;80.8
74484;SHT31;62942;52.462;10.846;2023-06-14T03:56:39;11.4;80.7
74484;SHT31;62942;52.462;10.846;2023-06-14T03:57:39;11.5;80.6
74484;SHT31;62942;52.462;10.846;2023-06-14T03:58:49;11.5;80.5
74484;SHT31;62942;52.462;10.846;2023-06-14T03:59:59;11.4;80.4
74484;SHT31;62942;52.462;10.846;2023-06-14T04:01:09;11.5;80.4
74484;SHT31;62942;52.462;10.846;2023-06-14T04:02:19;11.5;80.4
74484;SHT31;62942;52.462;10.846;2023-06-14T04:03:29;11.5;80.5
74484;SHT31;62942;52.462;10.846;2023-06-14T04:04:39;11.5;80.5
74484;SHT31;62942;52.462;10.846;2023-06-14T04:05:49;11.5;80.5
74484;SHT31;62942;52.462;10.846;2023-06-14T04:06:49;11.5;80.5
74484;SHT31;62942;52.462;10.846;2023-06-14T04:07:59;11.6;80.4
74484;SHT31;62942;52.462;10.846;2023-06-14T04:08:59;11.6;80.4
74484;SHT31;62942;52.462;10.846;2023-06-14T04:10:09;11.6;80.4
74484;SHT31;62942;52.462;10.846;2023-06-14T04:11:09;11.6;80.5
74484;SHT31;62942;52.462;10.846;2023-06-14T04:12:19;11.6;80.4
74484;SHT31;62942;52.462;10.846;2023-06-14T04:13:29;11.7;80.4
74484;SHT31;62942;52.462;10.846;2023-06-14T04:14:39;11.7;80.4
74484;SHT31;62942;52.462;10.846;2023-06-14T04:15:49;11.7;80.4
74484;SHT31;62942;52.462;10.846;2023-06-14T04:16:49;11.7;80.3
74484;SHT31;62942;52.462;10.846;2023-06-14T04:17:59;11.7;80.3
74484;SHT31;62942;52.462;10.846;2023-06-14T04:19:00;11.7;80.3
74484;SHT31;62942;52.462;10.846;2023-06-14T04:20:09;11.8;80.4
74484;SHT31;62942;52.462;10.846;2023-06-14T04:21:19;11.8;80.4
74484;SHT31;62942;52.462;10.846;2023-06-14T04:22:29;11.8;80.3
74484;SHT31;62942;52.462;10.846;2023-06-14T04:23:39;11.9;80.3
74484;SHT31;62942;52.462;10.846;2023-06-14T04:24:49;11.9;80.1
74484;SHT31;62942;52.462;10.846;2023-06-14T04:25:49;11.9;80.1
74484;SHT31;62942;52.462;10.846;2023-06-14T04:26:59;11.9;80.1
74484;SHT31;62942;52.462;10.846;2023-06-14T04:28:09;12;80
74484;SHT31;62942;52.462;10.846;2023-06-14T04:29:09;12;79.9
74484;SHT31;62942;52.462;10.846;2023-06-14T04:30:10;12;79.8
74484;SHT31;62942;52.462;10.846;2023-06-14T04:31:19;12;79.8
74484;SHT31;62942;52.462;10.846;2023-06-14T04:32:29;12.1;79.7
74484;SHT31;62942;52.462;10.846;2023-06-14T04:33:39;12.1;79.6
74484;SHT31;62942;52.462;10.846;2023-06-14T04:34:49;12.2;79.5
74484;SHT31;62942;52.462;10.846;2023-06-14T04:35:59;12.2;79.5
74484;SHT31;62942;52.462;10.846;2023-06-14T04:37:09;12.2;79.4
74484;SHT31;62942;52.462;10.846;2023-06-14T04:38:19;12.2;79.3
74484;SHT31;62942;52.462;10.846;2023-06-14T04:39:29;12.3;79.3
74484;SHT31;62942;52.462;10.846;2023-06-14T04:40:29;12.3;79.3
74484;SHT31;62942;52.462;10.846;2023-06-14T04:41:39;12.4;79.2
74484;SHT31;62942;52.462;10.846;2023-06-14T04:42:49;12.4;79.1
74484;SHT31;62942;52.462;10.846;2023-06-14T04:43:49;12.4;79.1
74484;SHT31;62942;52.462;10.846;2023-06-14T04:44:49;12.5;79
74484;SHT31;62942;52.462;10.846;2023-06-14T04:45:59;12.5;78.9
74484;SHT31;62942;52.462;10.846;2023-06-14T04:46:59;12.5;78.8
74484;SHT31;62942;52.462;10.846;2023-06-14T04:47:59;12.5;78.8
74484;SHT31;62942;52.462;10.846;2023-06-14T04:49:09;12.6;78.7
74484;SHT31;62942;52.462;10.846;2023-06-14T04:50:09;12.6;78.6
74484;SHT31;62942;52.462;10.846;2023-06-14T04:51:09;12.6;78.6
74484;SHT31;62942;52.462;10.846;2023-06-14T04:52:19;12.7;78.5
74484;SHT31;62942;52.462;10.846;2023-06-14T04:53:19;12.7;78.4
74484;SHT31;62942;52.462;10.846;2023-06-14T04:54:19;12.7;78.5
74484;SHT31;62942;52.462;10.846;2023-06-14T04:55:29;12.8;78.4
74484;SHT31;62942;52.462;10.846;2023-06-14T04:56:29;12.8;78.3
74484;SHT31;62942;52.462;10.846;2023-06-14T04:57:39;12.8;78.3
74484;SHT31;62942;52.462;10.846;2023-06-14T04:58:49;12.9;78.3
74484;SHT31;62942;52.462;10.846;2023-06-14T04:59:59;12.9;78.2
74484;SHT31;62942;52.462;10.846;2023-06-14T05:00:59;12.9;78.3
74484;SHT31;62942;52.462;10.846;2023-06-14T05:02:09;12.9;78.3
74484;SHT31;62942;52.462;10.846;2023-06-14T05:03:09;13;78.3
74484;SHT31;62942;52.462;10.846;2023-06-14T05:04:19;13;78.4
74484;SHT31;62942;52.462;10.846;2023-06-14T05:05:29;13.1;78.2
74484;SHT31;62942;52.462;10.846;2023-06-14T05:06:29;13.1;78.2
74484;SHT31;62942;52.462;10.846;2023-06-14T05:07:39;13.1;78.1
74484;SHT31;62942;52.462;10.846;2023-06-14T05:08:49;13.2;78
74484;SHT31;62942;52.462;10.846;2023-06-14T05:09:49;13.2;78
74484;SHT31;62942;52.462;10.846;2023-06-14T05:10:59;13.3;78.1
74484;SHT31;62942;52.462;10.846;2023-06-14T05:11:59;13.3;77.9
74484;SHT31;62942;52.462;10.846;2023-06-14T05:13:09;13.3;77.9
74484;SHT31;62942;52.462;10.846;2023-06-14T05:14:19;13.4;77.6
74484;SHT31;62942;52.462;10.846;2023-06-14T05:15:19;13.4;77.4
74484;SHT31;62942;52.462;10.846;2023-06-14T05:16:29;13.5;77.3
74484;SHT31;62942;52.462;10.846;2023-06-14T05:17:29;13.5;77.3
74484;SHT31;62942;52.462;10.846;2023-06-14T05:18:39;13.6;77.1
74484;SHT31;62942;52.462;10.846;2023-06-14T05:19:49;13.6;76.8
74484;SHT31;62942;52.462;10.846;2023-06-14T05:20:49;13.7;76.7
74484;SHT31;62942;52.462;10.846;2023-06-14T05:21:59;13.8;76.7
74484;SHT31;62942;52.462;10.846;2023-06-14T05:23:09;13.9;76.7
74484;SHT31;62942;52.462;10.846;2023-06-14T05:24:09;13.9;76.6
74484;SHT31;62942;52.462;10.846;2023-06-14T05:25:19;14.1;76.3
74484;SHT31;62942;52.462;10.846;2023-06-14T05:26:19;14.2;75.5
74484;SHT31;62942;52.462;10.846;2023-06-14T05:27:29;14.4;75.3
74484;SHT31;62942;52.462;10.846;2023-06-14T05:28:39;14.7;74.8
74484;SHT31;62942;52.462;10.846;2023-06-14T05:29:39;14.9;74.4
74484;SHT31;62942;52.462;10.846;2023-06-14T05:30:49;15.1;73.8
74484;SHT31;62942;52.462;10.846;2023-06-14T05:31:59;15.4;72.2
74484;SHT31;62942;52.462;10.846;2023-06-14T05:33:09;15.7;71.7
74484;SHT31;62942;52.462;10.846;2023-06-14T05:34:19;15.9;71
74484;SHT31;62942;52.462;10.846;2023-06-14T05:35:29;16.2;70.2
74484;SHT31;62942;52.462;10.846;2023-06-14T05:36:39;16.4;69.5
74484;SHT31;62942;52.462;10.846;2023-06-14T05:37:49;16.7;68.6
74484;SHT31;62942;52.462;10.846;2023-06-14T05:38:49;16.9;67.9
74484;SHT31;62942;52.462;10.846;2023-06-14T05:39:49;17.1;67.4
74484;SHT31;62942;52.462;10.846;2023-06-14T05:40:59;17.3;66.6
74484;SHT31;62942;52.462;10.846;2023-06-14T05:41:59;17.4;65
74484;SHT31;62942;52.462;10.846;2023-06-14T05:42:59;17.6;64.8
74484;SHT31;62942;52.462;10.846;2023-06-14T05:44:09;17.7;64.3
74484;SHT31;62942;52.462;10.846;2023-06-14T05:45:09;17.8;63.7
74484;SHT31;62942;52.462;10.846;2023-06-14T05:46:09;17.9;63.1
74484;SHT31;62942;52.462;10.846;2023-06-14T05:47:19;18;62.6
74484;SHT31;62942;52.462;10.846;2023-06-14T05:48:19;18.1;62.3
74484;SHT31;62942;52.462;10.846;2023-06-14T05:49:29;18.2;62.2
74484;SHT31;62942;52.462;10.846;2023-06-14T05:50:39;18.3;62
74484;SHT31;62942;52.462;10.846;2023-06-14T05:51:39;18.4;61.8
74484;SHT31;62942;52.462;10.846;2023-06-14T05:52:49;18.6;61.5
74484;SHT31;62942;52.462;10.846;2023-06-14T05:53:59;18.8;61
74484;SHT31;62942;52.462;10.846;2023-06-14T05:54:59;18.9;60.6
74484;SHT31;62942;52.462;10.846;2023-06-14T05:56:09;19.1;60
74484;SHT31;62942;52.462;10.846;2023-06-14T05:57:10;19.2;59.7
74484;SHT31;62942;52.462;10.846;2023-06-14T05:58:19;19.3;59
74484;SHT31;62942;52.462;10.846;2023-06-14T05:59:19;19.4;58.8
74484;SHT31;62942;52.462;10.846;2023-06-14T06:00:29;19.5;58.4
74484;SHT31;62942;52.462;10.846;2023-06-14T06:01:39;19.6;57.8
74484;SHT31;62942;52.462;10.846;2023-06-14T06:02:49;19.6;57.3
74484;SHT31;62942;52.462;10.846;2023-06-14T06:03:59;19.7;57.4
74484;SHT31;62942;52.462;10.846;2023-06-14T06:05:09;19.8;57.4
74484;SHT31;62942;52.462;10.846;2023-06-14T06:06:19;19.9;57
74484;SHT31;62942;52.462;10.846;2023-06-14T06:07:19;20;56.8
74484;SHT31;62942;52.462;10.846;2023-06-14T06:08:29;20.1;56.2
74484;SHT31;62942;52.462;10.846;2023-06-14T06:09:39;20.3;55.8
74484;SHT31;62942;52.462;10.846;2023-06-14T06:10:39;20.4;55.6
74484;SHT31;62942;52.462;10.846;2023-06-14T06:11:49;20.5;55.1
74484;SHT31;62942;52.462;10.846;2023-06-14T06:12:49;20.6;55
74484;SHT31;62942;52.462;10.846;2023-06-14T06:13:59;20.7;54.7
74484;SHT31;62942;52.462;10.846;2023-06-14T06:15:09;20.8;54.5
74484;SHT31;62942;52.462;10.846;2023-06-14T06:16:09;20.9;54.5
74484;SHT31;62942;52.462;10.846;2023-06-14T06:17:19;21;54.3
74484;SHT31;62942;52.462;10.846;2023-06-14T06:18:19;21.1;53.4
74484;SHT31;62942;52.462;10.846;2023-06-14T06:19:29;21.2;53.2
74484;SHT31;62942;52.462;10.846;2023-06-14T06:20:39;21.3;52.8
74484;SHT31;62942;52.462;10.846;2023-06-14T06:21:49;21.2;52.7
74484;SHT31;62942;52.462;10.846;2023-06-14T06:22:59;21.2;52.8
74484;SHT31;62942;52.462;10.846;2023-06-14T06:23:59;21.2;52.7
74484;SHT31;62942;52.462;10.846;2023-06-14T06:25:09;21.2;52.5
74484;SHT31;62942;52.462;10.846;2023-06-14T06:26:19;21.2;52.5
74484;SHT31;62942;52.462;10.846;2023-06-14T06:27:29;21.2;52.3
74484;SHT31;62942;52.462;10.846;2023-06-14T06:28:29;21.3;52.3
74484;SHT31;62942;52.462;10.846;2023-06-14T06:29:29;21.4;52.3
74484;SHT31;62942;52.462;10.846;2023-06-14T06:30:39;21.4;52.7
74484;SHT31;62942;52.462;10.846;2023-06-14T06:31:49;21.5;52.6
74484;SHT31;62942;52.462;10.846;2023-06-14T06:32:49;21.5;52.5
74484;SHT31;62942;52.462;10.846;2023-06-14T06:33:49;21.6;51.4
74484;SHT31;62942;52.462;10.846;2023-06-14T06:34:59;21.6;51.6
74484;SHT31;62942;52.462;10.846;2023-06-14T06:36:09;21.7;51.3
74484;SHT31;62942;52.462;10.846;2023-06-14T06:37:09;21.7;51.6
74484;SHT31;62942;52.462;10.846;2023-06-14T06:38:19;21.7;51.3
74484;SHT31;62942;52.462;10.846;2023-06-14T06:39:19;21.7;51.1
74484;SHT31;62942;52.462;10.846;2023-06-14T06:40:29;21.7;50.8
74484;SHT31;62942;52.462;10.846;2023-06-14T06:41:29;21.6;50.9
74484;SHT31;62942;52.462;10.846;2023-06-14T06:42:39;21.6;51.1
74484;SHT31;62942;52.462;10.846;2023-06-14T06:43:49;21.6;51.3
74484;SHT31;62942;52.462;10.846;2023-06-14T06:44:59;21.6;51.1
74484;SHT31;62942;52.462;10.846;2023-06-14T06:46:09;21.5;50.9
74484;SHT31;62942;52.462;10.846;2023-06-14T06:47:09;21.6;51
74484;SHT31;62942;52.462;10.846;2023-06-14T06:48:09;21.5;51
74484;SHT31;62942;52.462;10.846;2023-06-14T06:49:19;21.5;51.2
74484;SHT31;62942;52.462;10.846;2023-06-14T06:50:29;21.5;51.5
74484;SHT31;62942;52.462;10.846;2023-06-14T06:51:40;21.5;51.3
74484;SHT31;62942;52.462;10.846;2023-06-14T06:52:49;21.5;51.3
74484;SHT31;62942;52.462;10.846;2023-06-14T06:53:51;21.5;51.3
74484;SHT31;62942;52.462;10.846;2023-06-14T06:54:59;21.7;51.4
74484;SHT31;62942;52.462;10.846;2023-06-14T06:56:09;21.7;51.2
74484;SHT31;62942;52.462;10.846;2023-06-14T06:57:19;21.8;51.1
74484;SHT31;62942;52.462;10.846;2023-06-14T06:58:29;22;50.8
74484;SHT31;62942;52.462;10.846;2023-06-14T06:59:39;22.2;49.8
74484;SHT31;62942;52.462;10.846;2023-06-14T07:00:49;22.2;49.2
74484;SHT31;62942;52.462;10.846;2023-06-14T07:01:59;22.3;49
74484;SHT31;62942;52.462;10.846;2023-06-14T07:02:59;22.3;49.1
74484;SHT31;62942;52.462;10.846;2023-06-14T07:04:09;22.3;49
74484;SHT31;62942;52.462;10.846;2023-06-14T07:05:19;22.3;48.7
74484;SHT31;62942;52.462;10.846;2023-06-14T07:06:29;22.3;49
74484;SHT31;62942;52.462;10.846;2023-06-14T07:07:39;22.3;49.3
74484;SHT31;62942;52.462;10.846;2023-06-14T07:08:49;22.3;49.5